sensor_id;sensor_type;location;lat;lon;timestamp;P1;durP1;ratioP1;P2;durP2;ratioP2
74328;SDS011;62745;51.060;13.786;2023-03-17T00:00:36;7.35;;;3.28;;
74328;SDS011;62745;51.060;13.786;2023-03-17T00:03:03;6.75;;;3.17;;
74328;SDS011;62745;51.060;13.786;2023-03-17T00:05:30;8.38;;;3.50;;
74328;SDS011;62745;51.060;13.786;2023-03-17T00:07:59;7.70;;;3.60;;
74328;SDS011;62745;51.060;13.786;2023-03-17T00:10:29;8.50;;;3.72;;
74328;SDS011;62745;51.060;13.786;2023-03-17T00:12:55;8.73;;;3.70;;
74328;SDS011;62745;51.060;13.786;2023-03-17T00:15:24;8.53;;;3.70;;
74328;SDS011;62745;51.060;13.786;2023-03-17T00:17:51;8.85;;;3.30;;
74328;SDS011;62745;51.060;13.786;2023-03-17T00:20:26;6.45;;;3.55;;
74328;SDS011;62745;51.060;13.786;2023-03-17T00:22:54;7.32;;;3.50;;
74328;SDS011;62745;51.060;13.786;2023-03-17T00:25:23;8.18;;;3.35;;
74328;SDS011;62745;51.060;13.786;2023-03-17T00:27:53;9.82;;;3.40;;
74328;SDS011;62745;51.060;13.786;2023-03-17T00:30:20;7.53;;;3.65;;
74328;SDS011;62745;51.060;13.786;2023-03-17T00:32:47;8.50;;;4.00;;
74328;SDS011;62745;51.060;13.786;2023-03-17T00:35:16;7.53;;;3.25;;
74328;SDS011;62745;51.060;13.786;2023-03-17T00:37:44;13.45;;;4.25;;
74328;SDS011;62745;51.060;13.786;2023-03-17T00:40:18;10.48;;;3.88;;
74328;SDS011;62745;51.060;13.786;2023-03-17T00:42:46;7.30;;;3.90;;
74328;SDS011;62745;51.060;13.786;2023-03-17T00:45:12;7.28;;;3.63;;
74328;SDS011;62745;51.060;13.786;2023-03-17T00:47:37;8.88;;;3.72;;
74328;SDS011;62745;51.060;13.786;2023-03-17T00:50:04;8.63;;;3.67;;
74328;SDS011;62745;51.060;13.786;2023-03-17T00:52:30;8.90;;;4.13;;
74328;SDS011;62745;51.060;13.786;2023-03-17T00:54:56;8.00;;;3.70;;
74328;SDS011;62745;51.060;13.786;2023-03-17T00:57:21;7.78;;;3.72;;
74328;SDS011;62745;51.060;13.786;2023-03-17T00:59:47;5.88;;;3.00;;
74328;SDS011;62745;51.060;13.786;2023-03-17T01:02:12;7.38;;;3.58;;
74328;SDS011;62745;51.060;13.786;2023-03-17T01:04:38;8.13;;;3.97;;
74328;SDS011;62745;51.060;13.786;2023-03-17T01:07:05;6.97;;;3.55;;
74328;SDS011;62745;51.060;13.786;2023-03-17T01:09:31;8.50;;;3.97;;
74328;SDS011;62745;51.060;13.786;2023-03-17T01:11:57;9.35;;;3.22;;
74328;SDS011;62745;51.060;13.786;2023-03-17T01:14:23;9.70;;;3.67;;
74328;SDS011;62745;51.060;13.786;2023-03-17T01:16:49;9.48;;;3.60;;
74328;SDS011;62745;51.060;13.786;2023-03-17T01:19:14;9.63;;;3.70;;
74328;SDS011;62745;51.060;13.786;2023-03-17T01:21:40;7.88;;;3.55;;
74328;SDS011;62745;51.060;13.786;2023-03-17T01:24:06;7.28;;;3.47;;
74328;SDS011;62745;51.060;13.786;2023-03-17T01:26:32;8.60;;;4.35;;
74328;SDS011;62745;51.060;13.786;2023-03-17T01:28:58;11.48;;;3.45;;
74328;SDS011;62745;51.060;13.786;2023-03-17T01:31:23;7.00;;;3.17;;
74328;SDS011;62745;51.060;13.786;2023-03-17T01:33:50;6.07;;;2.65;;
74328;SDS011;62745;51.060;13.786;2023-03-17T01:36:16;9.80;;;4.10;;
74328;SDS011;62745;51.060;13.786;2023-03-17T01:38:42;7.53;;;3.60;;
74328;SDS011;62745;51.060;13.786;2023-03-17T01:41:07;9.63;;;3.50;;
74328;SDS011;62745;51.060;13.786;2023-03-17T01:43:32;8.93;;;3.70;;
74328;SDS011;62745;51.060;13.786;2023-03-17T01:48:57;10.40;;;3.90;;
74328;SDS011;62745;51.060;13.786;2023-03-17T01:51:40;9.25;;;3.25;;
74328;SDS011;62745;51.060;13.786;2023-03-17T01:54:13;8.15;;;3.33;;
74328;SDS011;62745;51.060;13.786;2023-03-17T01:56:43;7.35;;;3.38;;
74328;SDS011;62745;51.060;13.786;2023-03-17T01:59:11;8.27;;;3.25;;
74328;SDS011;62745;51.060;13.786;2023-03-17T02:01:42;8.85;;;3.20;;
74328;SDS011;62745;51.060;13.786;2023-03-17T02:04:11;8.60;;;3.75;;
74328;SDS011;62745;51.060;13.786;2023-03-17T02:06:36;7.15;;;2.85;;
74328;SDS011;62745;51.060;13.786;2023-03-17T02:09:02;10.02;;;3.47;;
74328;SDS011;62745;51.060;13.786;2023-03-17T02:11:28;7.30;;;3.22;;
74328;SDS011;62745;51.060;13.786;2023-03-17T02:13:55;7.68;;;3.80;;
74328;SDS011;62745;51.060;13.786;2023-03-17T02:16:20;8.17;;;3.70;;
74328;SDS011;62745;51.060;13.786;2023-03-17T02:18:46;6.20;;;3.20;;
74328;SDS011;62745;51.060;13.786;2023-03-17T02:21:27;8.10;;;3.35;;
74328;SDS011;62745;51.060;13.786;2023-03-17T02:23:58;6.40;;;3.13;;
74328;SDS011;62745;51.060;13.786;2023-03-17T02:26:27;8.15;;;3.40;;
74328;SDS011;62745;51.060;13.786;2023-03-17T02:28:56;7.88;;;3.00;;
74328;SDS011;62745;51.060;13.786;2023-03-17T02:31:25;8.05;;;2.97;;
74328;SDS011;62745;51.060;13.786;2023-03-17T02:33:51;7.22;;;2.67;;
74328;SDS011;62745;51.060;13.786;2023-03-17T02:36:17;6.15;;;2.88;;
74328;SDS011;62745;51.060;13.786;2023-03-17T02:38:43;5.63;;;2.95;;
74328;SDS011;62745;51.060;13.786;2023-03-17T02:41:08;7.25;;;2.95;;
74328;SDS011;62745;51.060;13.786;2023-03-17T02:43:34;6.85;;;3.33;;
74328;SDS011;62745;51.060;13.786;2023-03-17T02:45:59;8.20;;;3.17;;
74328;SDS011;62745;51.060;13.786;2023-03-17T02:48:25;6.47;;;3.20;;
74328;SDS011;62745;51.060;13.786;2023-03-17T02:50:51;8.68;;;2.95;;
74328;SDS011;62745;51.060;13.786;2023-03-17T02:53:16;5.15;;;2.75;;
74328;SDS011;62745;51.060;13.786;2023-03-17T02:55:42;6.45;;;2.70;;
74328;SDS011;62745;51.060;13.786;2023-03-17T02:58:07;5.72;;;2.65;;
74328;SDS011;62745;51.060;13.786;2023-03-17T03:00:33;7.85;;;3.20;;
74328;SDS011;62745;51.060;13.786;2023-03-17T03:02:58;6.45;;;2.50;;
74328;SDS011;62745;51.060;13.786;2023-03-17T03:05:24;7.90;;;3.25;;
74328;SDS011;62745;51.060;13.786;2023-03-17T03:07:50;5.85;;;2.90;;
74328;SDS011;62745;51.060;13.786;2023-03-17T03:10:16;8.38;;;2.88;;
74328;SDS011;62745;51.060;13.786;2023-03-17T03:12:42;5.90;;;2.83;;
74328;SDS011;62745;51.060;13.786;2023-03-17T03:15:08;6.07;;;2.63;;
74328;SDS011;62745;51.060;13.786;2023-03-17T03:17:34;7.75;;;3.00;;
74328;SDS011;62745;51.060;13.786;2023-03-17T03:19:59;6.37;;;2.93;;
74328;SDS011;62745;51.060;13.786;2023-03-17T03:22:25;8.23;;;3.50;;
74328;SDS011;62745;51.060;13.786;2023-03-17T03:24:50;7.35;;;2.70;;
74328;SDS011;62745;51.060;13.786;2023-03-17T03:27:19;7.03;;;3.10;;
74328;SDS011;62745;51.060;13.786;2023-03-17T03:29:44;6.10;;;2.90;;
74328;SDS011;62745;51.060;13.786;2023-03-17T03:32:10;7.15;;;2.83;;
74328;SDS011;62745;51.060;13.786;2023-03-17T03:34:35;6.10;;;2.73;;
74328;SDS011;62745;51.060;13.786;2023-03-17T03:37:00;8.63;;;3.37;;
74328;SDS011;62745;51.060;13.786;2023-03-17T03:39:26;5.93;;;3.08;;
74328;SDS011;62745;51.060;13.786;2023-03-17T03:41:51;7.72;;;3.00;;
74328;SDS011;62745;51.060;13.786;2023-03-17T03:44:19;8.50;;;2.95;;
74328;SDS011;62745;51.060;13.786;2023-03-17T03:46:44;6.40;;;3.13;;
74328;SDS011;62745;51.060;13.786;2023-03-17T03:49:10;6.65;;;3.20;;
74328;SDS011;62745;51.060;13.786;2023-03-17T03:51:35;7.03;;;3.20;;
74328;SDS011;62745;51.060;13.786;2023-03-17T03:54:00;8.17;;;3.23;;
74328;SDS011;62745;51.060;13.786;2023-03-17T03:56:26;6.90;;;3.22;;
74328;SDS011;62745;51.060;13.786;2023-03-17T03:58:52;8.97;;;3.87;;
74328;SDS011;62745;51.060;13.786;2023-03-17T04:01:17;7.47;;;3.10;;
74328;SDS011;62745;51.060;13.786;2023-03-17T04:03:42;6.40;;;2.77;;
74328;SDS011;62745;51.060;13.786;2023-03-17T04:06:10;5.55;;;2.25;;
74328;SDS011;62745;51.060;13.786;2023-03-17T04:08:36;6.63;;;3.17;;
74328;SDS011;62745;51.060;13.786;2023-03-17T04:11:01;6.80;;;3.03;;
74328;SDS011;62745;51.060;13.786;2023-03-17T04:13:26;6.80;;;3.03;;
74328;SDS011;62745;51.060;13.786;2023-03-17T04:15:52;6.87;;;3.03;;
74328;SDS011;62745;51.060;13.786;2023-03-17T04:18:17;11.43;;;3.40;;
74328;SDS011;62745;51.060;13.786;2023-03-17T04:20:42;6.77;;;2.83;;
74328;SDS011;62745;51.060;13.786;2023-03-17T04:23:07;6.03;;;2.63;;
74328;SDS011;62745;51.060;13.786;2023-03-17T04:25:33;9.90;;;2.93;;
74328;SDS011;62745;51.060;13.786;2023-03-17T04:27:58;7.35;;;2.75;;
74328;SDS011;62745;51.060;13.786;2023-03-17T04:30:23;7.27;;;2.87;;
74328;SDS011;62745;51.060;13.786;2023-03-17T04:32:48;6.77;;;2.80;;
74328;SDS011;62745;51.060;13.786;2023-03-17T04:35:15;6.03;;;2.60;;
74328;SDS011;62745;51.060;13.786;2023-03-17T04:37:42;7.30;;;3.22;;
74328;SDS011;62745;51.060;13.786;2023-03-17T04:40:08;6.25;;;2.85;;
74328;SDS011;62745;51.060;13.786;2023-03-17T04:42:35;7.68;;;3.33;;
74328;SDS011;62745;51.060;13.786;2023-03-17T04:45:01;8.20;;;3.40;;
74328;SDS011;62745;51.060;13.786;2023-03-17T04:47:30;5.60;;;2.95;;
74328;SDS011;62745;51.060;13.786;2023-03-17T04:49:56;6.50;;;3.22;;
74328;SDS011;62745;51.060;13.786;2023-03-17T04:52:21;8.23;;;3.77;;
74328;SDS011;62745;51.060;13.786;2023-03-17T04:54:47;6.80;;;3.10;;
74328;SDS011;62745;51.060;13.786;2023-03-17T04:57:12;7.77;;;3.03;;
74328;SDS011;62745;51.060;13.786;2023-03-17T04:59:37;8.67;;;3.60;;
74328;SDS011;62745;51.060;13.786;2023-03-17T05:02:03;8.87;;;3.33;;
74328;SDS011;62745;51.060;13.786;2023-03-17T05:04:28;7.60;;;3.27;;
74328;SDS011;62745;51.060;13.786;2023-03-17T05:06:53;6.53;;;3.23;;
74328;SDS011;62745;51.060;13.786;2023-03-17T05:09:18;6.83;;;3.20;;
74328;SDS011;62745;51.060;13.786;2023-03-17T05:11:44;6.67;;;2.97;;
74328;SDS011;62745;51.060;13.786;2023-03-17T05:14:09;8.05;;;3.35;;
74328;SDS011;62745;51.060;13.786;2023-03-17T05:16:34;8.77;;;3.37;;
74328;SDS011;62745;51.060;13.786;2023-03-17T05:19:00;7.13;;;3.03;;
74328;SDS011;62745;51.060;13.786;2023-03-17T05:21:25;6.40;;;3.20;;
74328;SDS011;62745;51.060;13.786;2023-03-17T05:23:50;8.30;;;2.90;;
74328;SDS011;62745;51.060;13.786;2023-03-17T05:26:16;7.03;;;3.60;;
74328;SDS011;62745;51.060;13.786;2023-03-17T05:28:42;8.98;;;3.13;;
74328;SDS011;62745;51.060;13.786;2023-03-17T05:31:07;9.27;;;2.73;;
74328;SDS011;62745;51.060;13.786;2023-03-17T05:33:33;6.82;;;3.00;;
74328;SDS011;62745;51.060;13.786;2023-03-17T05:36:01;10.02;;;3.30;;
74328;SDS011;62745;51.060;13.786;2023-03-17T05:38:27;7.28;;;3.50;;
74328;SDS011;62745;51.060;13.786;2023-03-17T05:40:53;7.53;;;3.63;;
74328;SDS011;62745;51.060;13.786;2023-03-17T05:43:19;9.30;;;3.37;;
74328;SDS011;62745;51.060;13.786;2023-03-17T05:45:44;9.75;;;3.25;;
74328;SDS011;62745;51.060;13.786;2023-03-17T05:48:11;7.75;;;3.25;;
74328;SDS011;62745;51.060;13.786;2023-03-17T05:50:37;6.88;;;3.50;;
74328;SDS011;62745;51.060;13.786;2023-03-17T05:53:02;9.73;;;3.45;;
74328;SDS011;62745;51.060;13.786;2023-03-17T05:55:29;9.47;;;3.00;;
74328;SDS011;62745;51.060;13.786;2023-03-17T05:57:57;7.82;;;3.63;;
74328;SDS011;62745;51.060;13.786;2023-03-17T06:00:31;9.38;;;4.25;;
74328;SDS011;62745;51.060;13.786;2023-03-17T06:02:57;8.85;;;2.97;;
74328;SDS011;62745;51.060;13.786;2023-03-17T06:05:22;9.07;;;3.40;;
74328;SDS011;62745;51.060;13.786;2023-03-17T06:07:48;6.33;;;3.23;;
74328;SDS011;62745;51.060;13.786;2023-03-17T06:10:13;8.67;;;3.10;;
74328;SDS011;62745;51.060;13.786;2023-03-17T06:12:38;6.28;;;2.95;;
74328;SDS011;62745;51.060;13.786;2023-03-17T06:15:04;6.17;;;3.00;;
74328;SDS011;62745;51.060;13.786;2023-03-17T06:17:30;8.98;;;3.22;;
74328;SDS011;62745;51.060;13.786;2023-03-17T06:19:55;6.13;;;3.10;;
74328;SDS011;62745;51.060;13.786;2023-03-17T06:22:20;6.73;;;3.17;;
74328;SDS011;62745;51.060;13.786;2023-03-17T06:24:45;7.27;;;3.30;;
74328;SDS011;62745;51.060;13.786;2023-03-17T06:27:11;6.80;;;3.27;;
74328;SDS011;62745;51.060;13.786;2023-03-17T06:29:38;7.20;;;3.17;;
74328;SDS011;62745;51.060;13.786;2023-03-17T06:32:03;5.83;;;3.00;;
74328;SDS011;62745;51.060;13.786;2023-03-17T06:34:29;6.40;;;2.90;;
74328;SDS011;62745;51.060;13.786;2023-03-17T06:36:55;8.95;;;3.20;;
74328;SDS011;62745;51.060;13.786;2023-03-17T06:39:20;7.40;;;3.33;;
74328;SDS011;62745;51.060;13.786;2023-03-17T06:41:46;5.97;;;2.95;;
74328;SDS011;62745;51.060;13.786;2023-03-17T06:44:11;5.53;;;2.70;;
74328;SDS011;62745;51.060;13.786;2023-03-17T06:46:37;7.43;;;3.40;;
74328;SDS011;62745;51.060;13.786;2023-03-17T06:49:02;5.40;;;3.00;;
74328;SDS011;62745;51.060;13.786;2023-03-17T06:51:28;6.15;;;3.00;;
74328;SDS011;62745;51.060;13.786;2023-03-17T06:53:54;6.28;;;3.05;;
74328;SDS011;62745;51.060;13.786;2023-03-17T06:56:19;6.40;;;2.85;;
74328;SDS011;62745;51.060;13.786;2023-03-17T06:58:45;7.68;;;3.20;;
74328;SDS011;62745;51.060;13.786;2023-03-17T07:01:11;6.90;;;3.15;;
74328;SDS011;62745;51.060;13.786;2023-03-17T07:03:36;9.13;;;2.85;;
74328;SDS011;62745;51.060;13.786;2023-03-17T07:06:01;6.10;;;2.73;;
74328;SDS011;62745;51.060;13.786;2023-03-17T07:08:27;6.32;;;2.92;;
74328;SDS011;62745;51.060;13.786;2023-03-17T07:10:54;6.43;;;3.17;;
74328;SDS011;62745;51.060;13.786;2023-03-17T07:13:21;7.88;;;3.17;;
74328;SDS011;62745;51.060;13.786;2023-03-17T07:15:47;6.95;;;2.90;;
74328;SDS011;62745;51.060;13.786;2023-03-17T07:18:13;6.38;;;3.55;;
74328;SDS011;62745;51.060;13.786;2023-03-17T07:20:39;7.17;;;3.07;;
74328;SDS011;62745;51.060;13.786;2023-03-17T07:23:04;6.13;;;2.90;;
74328;SDS011;62745;51.060;13.786;2023-03-17T07:25:30;6.70;;;3.40;;
74328;SDS011;62745;51.060;13.786;2023-03-17T07:27:55;7.53;;;2.80;;
74328;SDS011;62745;51.060;13.786;2023-03-17T07:30:20;8.90;;;3.03;;
74328;SDS011;62745;51.060;13.786;2023-03-17T07:32:46;8.20;;;2.80;;
74328;SDS011;62745;51.060;13.786;2023-03-17T07:35:12;7.13;;;3.20;;
74328;SDS011;62745;51.060;13.786;2023-03-17T07:37:39;8.85;;;3.40;;
74328;SDS011;62745;51.060;13.786;2023-03-17T07:40:05;6.57;;;2.88;;
74328;SDS011;62745;51.060;13.786;2023-03-17T07:42:33;5.90;;;2.95;;
74328;SDS011;62745;51.060;13.786;2023-03-17T07:44:58;6.45;;;2.70;;
74328;SDS011;62745;51.060;13.786;2023-03-17T07:47:23;6.40;;;2.43;;
74328;SDS011;62745;51.060;13.786;2023-03-17T07:49:49;8.53;;;2.97;;
74328;SDS011;62745;51.060;13.786;2023-03-17T07:52:14;7.40;;;3.00;;
74328;SDS011;62745;51.060;13.786;2023-03-17T07:54:39;5.25;;;3.03;;
74328;SDS011;62745;51.060;13.786;2023-03-17T07:57:05;5.72;;;2.90;;
74328;SDS011;62745;51.060;13.786;2023-03-17T07:59:31;6.10;;;3.05;;
74328;SDS011;62745;51.060;13.786;2023-03-17T08:01:56;7.30;;;2.85;;
74328;SDS011;62745;51.060;13.786;2023-03-17T08:04:23;5.65;;;2.78;;
74328;SDS011;62745;51.060;13.786;2023-03-17T08:06:48;8.07;;;3.37;;
74328;SDS011;62745;51.060;13.786;2023-03-17T08:09:14;5.75;;;2.80;;
74328;SDS011;62745;51.060;13.786;2023-03-17T08:11:39;6.95;;;3.20;;
74328;SDS011;62745;51.060;13.786;2023-03-17T08:14:05;6.53;;;2.90;;
74328;SDS011;62745;51.060;13.786;2023-03-17T08:16:30;6.30;;;3.00;;
74328;SDS011;62745;51.060;13.786;2023-03-17T08:18:55;6.82;;;2.72;;
74328;SDS011;62745;51.060;13.786;2023-03-17T08:21:22;4.55;;;2.40;;
74328;SDS011;62745;51.060;13.786;2023-03-17T08:23:52;7.13;;;2.88;;
74328;SDS011;62745;51.060;13.786;2023-03-17T08:26:20;6.63;;;2.70;;
74328;SDS011;62745;51.060;13.786;2023-03-17T08:28:45;7.80;;;2.85;;
74328;SDS011;62745;51.060;13.786;2023-03-17T08:31:18;9.00;;;3.38;;
74328;SDS011;62745;51.060;13.786;2023-03-17T08:33:45;6.00;;;2.83;;
74328;SDS011;62745;51.060;13.786;2023-03-17T08:36:16;5.32;;;2.83;;
74328;SDS011;62745;51.060;13.786;2023-03-17T08:38:43;5.15;;;2.60;;
74328;SDS011;62745;51.060;13.786;2023-03-17T08:41:11;6.75;;;2.60;;
74328;SDS011;62745;51.060;13.786;2023-03-17T08:43:39;7.22;;;2.97;;
74328;SDS011;62745;51.060;13.786;2023-03-17T08:46:07;4.95;;;2.53;;
74328;SDS011;62745;51.060;13.786;2023-03-17T08:48:36;8.38;;;3.00;;
74328;SDS011;62745;51.060;13.786;2023-03-17T08:51:02;6.40;;;3.00;;
74328;SDS011;62745;51.060;13.786;2023-03-17T08:53:28;6.75;;;2.70;;
74328;SDS011;62745;51.060;13.786;2023-03-17T08:55:54;5.23;;;2.73;;
74328;SDS011;62745;51.060;13.786;2023-03-17T08:58:21;6.35;;;2.70;;
74328;SDS011;62745;51.060;13.786;2023-03-17T09:00:46;8.38;;;3.03;;
74328;SDS011;62745;51.060;13.786;2023-03-17T09:03:12;5.65;;;2.60;;
74328;SDS011;62745;51.060;13.786;2023-03-17T09:05:38;6.72;;;2.75;;
74328;SDS011;62745;51.060;13.786;2023-03-17T09:08:05;7.13;;;3.05;;
74328;SDS011;62745;51.060;13.786;2023-03-17T09:10:31;5.72;;;2.30;;
74328;SDS011;62745;51.060;13.786;2023-03-17T09:12:57;7.20;;;3.25;;
74328;SDS011;62745;51.060;13.786;2023-03-17T09:15:27;5.90;;;2.70;;
74328;SDS011;62745;51.060;13.786;2023-03-17T09:17:52;5.65;;;2.60;;
74328;SDS011;62745;51.060;13.786;2023-03-17T09:20:17;5.93;;;2.50;;
74328;SDS011;62745;51.060;13.786;2023-03-17T09:22:43;8.05;;;2.35;;
74328;SDS011;62745;51.060;13.786;2023-03-17T09:25:08;6.28;;;2.90;;
74328;SDS011;62745;51.060;13.786;2023-03-17T09:27:33;7.50;;;2.80;;
74328;SDS011;62745;51.060;13.786;2023-03-17T09:29:59;6.10;;;2.37;;
74328;SDS011;62745;51.060;13.786;2023-03-17T09:32:24;7.17;;;2.53;;
74328;SDS011;62745;51.060;13.786;2023-03-17T09:34:49;6.37;;;2.63;;
74328;SDS011;62745;51.060;13.786;2023-03-17T09:37:15;5.40;;;2.78;;
74328;SDS011;62745;51.060;13.786;2023-03-17T09:39:40;6.43;;;2.60;;
74328;SDS011;62745;51.060;13.786;2023-03-17T09:45:08;6.65;;;2.80;;
74328;SDS011;62745;51.060;13.786;2023-03-17T09:48:07;7.10;;;2.75;;
74328;SDS011;62745;51.060;13.786;2023-03-17T09:53:19;6.90;;;2.28;;
74328;SDS011;62745;51.060;13.786;2023-03-17T09:55:51;6.05;;;2.78;;
74328;SDS011;62745;51.060;13.786;2023-03-17T09:58:19;7.25;;;2.80;;
74328;SDS011;62745;51.060;13.786;2023-03-17T10:00:50;12.52;;;2.40;;
74328;SDS011;62745;51.060;13.786;2023-03-17T10:03:15;7.70;;;3.10;;
74328;SDS011;62745;51.060;13.786;2023-03-17T10:05:41;7.47;;;2.85;;
74328;SDS011;62745;51.060;13.786;2023-03-17T10:08:17;6.70;;;2.40;;
74328;SDS011;62745;51.060;13.786;2023-03-17T10:11:06;6.97;;;3.00;;
74328;SDS011;62745;51.060;13.786;2023-03-17T10:13:43;5.28;;;2.60;;
74328;SDS011;62745;51.060;13.786;2023-03-17T10:19:29;6.07;;;2.65;;
74328;SDS011;62745;51.060;13.786;2023-03-17T10:22:00;5.65;;;2.40;;
74328;SDS011;62745;51.060;13.786;2023-03-17T10:24:30;6.68;;;2.55;;
74328;SDS011;62745;51.060;13.786;2023-03-17T10:26:58;7.75;;;2.85;;
74328;SDS011;62745;51.060;13.786;2023-03-17T10:29:28;6.22;;;3.03;;
74328;SDS011;62745;51.060;13.786;2023-03-17T10:31:55;8.23;;;2.45;;
74328;SDS011;62745;51.060;13.786;2023-03-17T10:34:30;5.95;;;3.33;;
74328;SDS011;62745;51.060;13.786;2023-03-17T10:37:02;5.30;;;2.15;;
74328;SDS011;62745;51.060;13.786;2023-03-17T10:39:29;6.63;;;2.95;;
74328;SDS011;62745;51.060;13.786;2023-03-17T10:42:11;7.18;;;3.28;;
74328;SDS011;62745;51.060;13.786;2023-03-17T10:45:06;7.50;;;3.20;;
74328;SDS011;62745;51.060;13.786;2023-03-17T10:47:45;6.82;;;2.60;;
74328;SDS011;62745;51.060;13.786;2023-03-17T10:56:16;6.45;;;2.40;;
74328;SDS011;62745;51.060;13.786;2023-03-17T10:58:17;10.27;;;2.75;;
74328;SDS011;62745;51.060;13.786;2023-03-17T11:03:37;6.00;;;2.58;;
74328;SDS011;62745;51.060;13.786;2023-03-17T11:06:05;6.22;;;2.75;;
74328;SDS011;62745;51.060;13.786;2023-03-17T11:08:40;8.40;;;3.25;;
74328;SDS011;62745;51.060;13.786;2023-03-17T11:11:21;4.97;;;2.38;;
74328;SDS011;62745;51.060;13.786;2023-03-17T11:13:50;5.03;;;2.28;;
74328;SDS011;62745;51.060;13.786;2023-03-17T11:16:24;5.15;;;2.90;;
74328;SDS011;62745;51.060;13.786;2023-03-17T11:18:51;5.55;;;2.55;;
74328;SDS011;62745;51.060;13.786;2023-03-17T11:24:00;5.32;;;2.28;;
74328;SDS011;62745;51.060;13.786;2023-03-17T11:26:37;7.10;;;2.55;;
74328;SDS011;62745;51.060;13.786;2023-03-17T11:29:27;6.30;;;2.83;;
74328;SDS011;62745;51.060;13.786;2023-03-17T11:32:10;5.28;;;2.60;;
74328;SDS011;62745;51.060;13.786;2023-03-17T11:34:48;7.68;;;2.78;;
74328;SDS011;62745;51.060;13.786;2023-03-17T11:46:23;7.80;;;2.70;;
74328;SDS011;62745;51.060;13.786;2023-03-17T11:48:55;6.18;;;2.80;;
74328;SDS011;62745;51.060;13.786;2023-03-17T11:54:20;4.55;;;2.25;;
74328;SDS011;62745;51.060;13.786;2023-03-17T11:56:56;5.05;;;2.60;;
74328;SDS011;62745;51.060;13.786;2023-03-17T12:02:31;5.45;;;2.97;;
74328;SDS011;62745;51.060;13.786;2023-03-17T12:05:08;6.78;;;2.35;;
74328;SDS011;62745;51.060;13.786;2023-03-17T12:10:20;6.82;;;2.67;;
74328;SDS011;62745;51.060;13.786;2023-03-17T12:12:49;6.18;;;3.05;;
74328;SDS011;62745;51.060;13.786;2023-03-17T12:15:40;6.25;;;2.80;;
74328;SDS011;62745;51.060;13.786;2023-03-17T12:21:29;5.43;;;2.72;;
74328;SDS011;62745;51.060;13.786;2023-03-17T12:26:53;5.40;;;3.22;;
74328;SDS011;62745;51.060;13.786;2023-03-17T12:29:33;5.63;;;3.10;;
74328;SDS011;62745;51.060;13.786;2023-03-17T12:32:12;7.20;;;3.40;;
74328;SDS011;62745;51.060;13.786;2023-03-17T12:34:50;5.07;;;2.75;;
74328;SDS011;62745;51.060;13.786;2023-03-17T12:37:19;6.22;;;3.70;;
74328;SDS011;62745;51.060;13.786;2023-03-17T12:45:58;6.47;;;3.35;;
74328;SDS011;62745;51.060;13.786;2023-03-17T12:48:44;5.07;;;3.30;;
74328;SDS011;62745;51.060;13.786;2023-03-17T12:51:42;7.50;;;3.33;;
74328;SDS011;62745;51.060;13.786;2023-03-17T12:54:20;6.03;;;3.40;;
74328;SDS011;62745;51.060;13.786;2023-03-17T12:56:51;5.43;;;3.63;;
74328;SDS011;62745;51.060;13.786;2023-03-17T12:59:18;5.72;;;3.25;;
74328;SDS011;62745;51.060;13.786;2023-03-17T13:01:56;5.97;;;3.60;;
74328;SDS011;62745;51.060;13.786;2023-03-17T13:04:46;6.53;;;3.47;;
74328;SDS011;62745;51.060;13.786;2023-03-17T13:07:24;7.28;;;4.10;;
74328;SDS011;62745;51.060;13.786;2023-03-17T13:15:22;5.93;;;3.22;;
74328;SDS011;62745;51.060;13.786;2023-03-17T13:18:09;7.05;;;3.50;;
74328;SDS011;62745;51.060;13.786;2023-03-17T13:20:41;6.70;;;4.05;;
74328;SDS011;62745;51.060;13.786;2023-03-17T13:35:38;8.02;;;4.05;;
74328;SDS011;62745;51.060;13.786;2023-03-17T13:38:24;7.72;;;3.78;;
74328;SDS011;62745;51.060;13.786;2023-03-17T13:44:12;6.72;;;3.75;;
74328;SDS011;62745;51.060;13.786;2023-03-17T13:46:46;6.38;;;4.00;;
74328;SDS011;62745;51.060;13.786;2023-03-17T13:49:13;5.60;;;3.30;;
74328;SDS011;62745;51.060;13.786;2023-03-17T13:51:52;8.20;;;3.70;;
74328;SDS011;62745;51.060;13.786;2023-03-17T13:56:52;5.65;;;3.15;;
74328;SDS011;62745;51.060;13.786;2023-03-17T14:02:10;8.48;;;4.30;;
74328;SDS011;62745;51.060;13.786;2023-03-17T14:04:45;6.40;;;4.15;;
74328;SDS011;62745;51.060;13.786;2023-03-17T14:07:18;8.30;;;4.78;;
74328;SDS011;62745;51.060;13.786;2023-03-17T14:09:45;8.40;;;4.80;;
74328;SDS011;62745;51.060;13.786;2023-03-17T14:14:47;8.95;;;4.78;;
74328;SDS011;62745;51.060;13.786;2023-03-17T14:19:58;7.38;;;4.10;;
74328;SDS011;62745;51.060;13.786;2023-03-17T14:22:40;7.28;;;4.10;;
74328;SDS011;62745;51.060;13.786;2023-03-17T14:25:17;9.07;;;4.88;;
74328;SDS011;62745;51.060;13.786;2023-03-17T14:27:46;8.77;;;4.25;;
74328;SDS011;62745;51.060;13.786;2023-03-17T14:30:15;9.57;;;4.13;;
74328;SDS011;62745;51.060;13.786;2023-03-17T14:32:51;7.03;;;4.18;;
74328;SDS011;62745;51.060;13.786;2023-03-17T14:35:22;9.65;;;4.93;;
74328;SDS011;62745;51.060;13.786;2023-03-17T14:37:48;10.07;;;4.80;;
74328;SDS011;62745;51.060;13.786;2023-03-17T14:40:17;9.27;;;4.60;;
74328;SDS011;62745;51.060;13.786;2023-03-17T14:42:44;7.97;;;4.57;;
74328;SDS011;62745;51.060;13.786;2023-03-17T14:45:20;9.47;;;4.73;;
74328;SDS011;62745;51.060;13.786;2023-03-17T14:48:08;8.52;;;4.65;;
74328;SDS011;62745;51.060;13.786;2023-03-17T14:50:45;9.18;;;4.32;;
74328;SDS011;62745;51.060;13.786;2023-03-17T14:53:13;8.02;;;3.95;;
74328;SDS011;62745;51.060;13.786;2023-03-17T14:55:39;8.77;;;4.67;;
74328;SDS011;62745;51.060;13.786;2023-03-17T14:58:16;9.05;;;5.05;;
74328;SDS011;62745;51.060;13.786;2023-03-17T15:00:47;11.60;;;4.93;;
74328;SDS011;62745;51.060;13.786;2023-03-17T15:03:19;12.23;;;5.05;;
74328;SDS011;62745;51.060;13.786;2023-03-17T15:05:46;9.00;;;4.68;;
74328;SDS011;62745;51.060;13.786;2023-03-17T15:11:05;7.78;;;4.00;;
74328;SDS011;62745;51.060;13.786;2023-03-17T15:13:33;8.23;;;4.70;;
74328;SDS011;62745;51.060;13.786;2023-03-17T15:16:33;9.00;;;4.70;;
74328;SDS011;62745;51.060;13.786;2023-03-17T15:19:06;7.57;;;4.43;;
74328;SDS011;62745;51.060;13.786;2023-03-17T15:21:52;10.10;;;5.28;;
74328;SDS011;62745;51.060;13.786;2023-03-17T15:24:23;9.75;;;5.15;;
74328;SDS011;62745;51.060;13.786;2023-03-17T15:27:05;10.52;;;5.50;;
74328;SDS011;62745;51.060;13.786;2023-03-17T15:29:38;8.40;;;4.20;;
74328;SDS011;62745;51.060;13.786;2023-03-17T15:32:11;9.35;;;5.35;;
74328;SDS011;62745;51.060;13.786;2023-03-17T15:34:39;8.48;;;5.00;;
74328;SDS011;62745;51.060;13.786;2023-03-17T15:37:10;8.80;;;5.03;;
74328;SDS011;62745;51.060;13.786;2023-03-17T15:39:38;9.10;;;4.93;;
74328;SDS011;62745;51.060;13.786;2023-03-17T15:42:04;11.47;;;5.73;;
74328;SDS011;62745;51.060;13.786;2023-03-17T15:44:29;7.93;;;4.93;;
74328;SDS011;62745;51.060;13.786;2023-03-17T15:46:54;9.00;;;4.50;;
74328;SDS011;62745;51.060;13.786;2023-03-17T15:49:20;10.17;;;4.73;;
74328;SDS011;62745;51.060;13.786;2023-03-17T15:51:47;10.30;;;5.10;;
74328;SDS011;62745;51.060;13.786;2023-03-17T15:54:13;9.33;;;5.30;;
74328;SDS011;62745;51.060;13.786;2023-03-17T15:56:39;9.35;;;5.35;;
74328;SDS011;62745;51.060;13.786;2023-03-17T15:59:07;10.30;;;5.45;;
74328;SDS011;62745;51.060;13.786;2023-03-17T16:01:32;9.20;;;5.28;;
74328;SDS011;62745;51.060;13.786;2023-03-17T16:03:58;10.40;;;4.97;;
74328;SDS011;62745;51.060;13.786;2023-03-17T16:06:23;9.07;;;4.30;;
74328;SDS011;62745;51.060;13.786;2023-03-17T16:08:49;7.23;;;4.73;;